General Aviation Weather

Text Reports

Enter one or more of the following location identifiers separated by a space:

Zip Code, Four-Character ICAO or Three-Character IATA airport codes.

METAR - Aviation Routine Weather Report
GMAD - Agadir Al Massira,
Updated at 4:00 AM GMT on January 26, 2015 (4:00 AM WET):
METAR GMAD 260400Z 05003KT CAVOK 07/02 Q1023 NOSIG
TAF - Terminal Area Forecast
GMAD - Agadir Al Massira,
Updated at 4:00 AM GMT on January 26, 2015 (4:00 AM WET):
No TAF is currently available for this location.
Decoded:
No decoded TAF is available.
PIREP - Pilot Weather Report
GMAD - Agadir Al Massira,
Updated at 4:00 AM GMT on January 26, 2015 (4:00 AM WET):
No PIREP is currently available for this location.
AIRMET - Airmens Meteorological Information
GMAD - Agadir Al Massira,
Updated at 4:00 AM GMT on January 26, 2015 (4:00 AM WET):
No AIRMET is currently available for this location.
SIGMET - Significant Meteorological Information
GMAD - Agadir Al Massira,
Updated at 4:00 AM GMT on January 26, 2015 (4:00 AM WET):
No SIGMET is currently available for this location.
NOTAM - Notice to Airmen
GMAD - Agadir Al Massira,
Updated at 4:00 AM GMT on January 26, 2015 (4:00 AM WET):
No NOTAM is currently available for this location.
Forecast Area
GMAD - Agadir Al Massira,
Updated at 4:00 AM GMT on January 26, 2015 (4:00 AM WET):
No NOTAM is currently available for this location.
Aviation Weather Maps